Time;durP1;ratioP1;P1;durP2;ratioP2;P2;SDS_P1;SDS_P2;PMS_P1;PMS_P2;Temp;Humidity;BMP_temperature;BMP_pressure;BME280_temperature;BME280_humidity;BME280_pressure;Samples;Min_cycle;Max_cycle;Signal;HPM_P1;HPM_P2
2023/01/20 00:00:35;;;;;;;24.42;11.13;;;;;;;0.57;100.00;100658.56;6274308;28;20393;-70
2023/01/20 00:03:36;;;;;;;22.52;10.43;;;;;;;0.53;100.00;100656.91;6274103;28;20056;-70
2023/01/20 00:06:39;;;;;;;20.13;9.63;;;;;;;0.49;100.00;100652.66;6274210;28;20049;-70
2023/01/20 00:09:40;;;;;;;25.02;9.65;;;;;;;0.47;100.00;100657.00;6273848;28;20044;-70
2023/01/20 00:12:42;;;;;;;28.65;11.52;;;;;;;0.46;100.00;100652.72;6273892;28;20488;-70
2023/01/20 00:15:43;;;;;;;24.88;11.30;;;;;;;0.46;100.00;100652.72;6273777;28;20056;-70
2023/01/20 00:18:44;;;;;;;21.15;9.55;;;;;;;0.46;100.00;100663.06;6273137;28;20041;-70
2023/01/20 00:21:47;;;;;;;20.10;9.43;;;;;;;0.41;100.00;100662.22;6273608;28;20518;-70
2023/01/20 00:24:48;;;;;;;25.80;12.25;;;;;;;0.42;100.00;100671.72;6273522;28;20060;-70
2023/01/20 00:27:52;;;;;;;29.65;9.60;;;;;;;0.37;100.00;100674.34;6273185;28;20045;-70
2023/01/20 00:30:53;;;;;;;29.30;10.18;;;;;;;0.34;100.00;100669.22;6273031;28;20060;-70
2023/01/20 00:33:56;;;;;;;18.23;9.27;;;;;;;0.44;100.00;100675.13;6273386;28;20414;-70
2023/01/20 00:36:59;;;;;;;24.50;9.55;;;;;;;0.44;100.00;100670.81;6273265;28;20416;-70
2023/01/20 00:40:00;;;;;;;20.85;9.48;;;;;;;0.45;100.00;100676.81;6273255;28;20053;-70
2023/01/20 00:43:01;;;;;;;19.30;10.35;;;;;;;0.38;100.00;100681.22;6272961;28;20049;-70
2023/01/20 00:46:03;;;;;;;21.75;9.85;;;;;;;0.35;100.00;100690.75;6272869;28;20049;-70
2023/01/20 00:49:04;;;;;;;24.67;9.48;;;;;;;0.31;100.00;100687.34;6272999;28;20053;-70
2023/01/20 00:52:07;;;;;;;18.98;9.68;;;;;;;0.31;100.00;100689.94;6272842;28;20053;-70
2023/01/20 00:55:09;;;;;;;19.63;9.00;;;;;;;0.18;100.00;100699.56;6272734;28;20057;-70
2023/01/20 00:58:10;;;;;;;21.45;10.43;;;;;;;0.09;100.00;100693.63;6272930;28;20455;-70
2023/01/20 01:01:12;;;;;;;27.40;10.25;;;;;;;-0.01;100.00;100708.38;6272644;28;20320;-70
2023/01/20 01:04:13;;;;;;;20.92;10.55;;;;;;;-0.09;100.00;100703.31;6272551;28;20049;-70
2023/01/20 01:07:16;;;;;;;20.58;9.32;;;;;;;-0.04;100.00;100711.03;6272634;28;20044;-69
2023/01/20 01:10:17;;;;;;;29.40;10.38;;;;;;;-0.08;100.00;100714.50;6272267;28;20131;-69
2023/01/20 01:13:19;;;;;;;24.90;10.40;;;;;;;-0.07;100.00;100722.22;6272586;28;20527;-70
2023/01/20 01:16:20;;;;;;;29.92;10.93;;;;;;;-0.01;100.00;100722.16;6272214;28;20052;-70
2023/01/20 01:19:21;;;;;;;27.70;11.27;;;;;;;0.10;100.00;100739.28;6272612;28;20049;-70
2023/01/20 01:22:24;;;;;;;30.38;11.35;;;;;;;0.15;100.00;100747.84;6271927;28;20488;-70
2023/01/20 01:25:25;;;;;;;33.60;11.52;;;;;;;0.16;100.00;100749.53;6272229;28;20045;-70
2023/01/20 01:28:26;;;;;;;23.90;10.18;;;;;;;0.17;100.00;100748.66;6271731;28;20049;-70
2023/01/20 01:31:28;;;;;;;25.05;10.93;;;;;;;0.20;100.00;100757.25;6271066;28;20045;-70
2023/01/20 01:34:29;;;;;;;22.02;10.55;;;;;;;0.21;100.00;100755.53;6271759;28;20440;-70
2023/01/20 01:37:32;;;;;;;28.20;10.95;;;;;;;0.16;100.00;100758.16;6272112;28;20508;-70
2023/01/20 01:40:34;;;;;;;23.40;10.68;;;;;;;0.25;100.00;100764.94;6271653;28;20076;-70
2023/01/20 01:43:37;;;;;;;25.95;10.25;;;;;;;0.24;100.00;100765.84;6271966;28;20064;-70
2023/01/20 01:46:39;;;;;;;29.08;11.55;;;;;;;0.28;100.00;100774.41;6271641;28;20051;-70
2023/01/20 01:49:41;;;;;;;24.95;12.02;;;;;;;0.19;100.00;100772.78;6271596;28;20049;-70
2023/01/20 01:52:46;;;;;;;33.67;13.20;;;;;;;0.32;100.00;100778.66;6271573;28;20056;-70
2023/01/20 01:55:51;;;;;;;22.90;10.52;;;;;;;0.27;100.00;100775.25;6271358;28;20524;-70
2023/01/20 01:58:56;;;;;;;32.40;12.52;;;;;;;0.22;100.00;100776.16;6271540;28;20428;-70
2023/01/20 02:01:58;;;;;;;30.95;11.57;;;;;;;0.09;100.00;100781.47;6271226;28;20052;-70
2023/01/20 02:04:59;;;;;;;36.65;13.18;;;;;;;0.09;100.00;100786.63;6271491;28;20055;-70
2023/01/20 02:08:03;;;;;;;43.10;12.23;;;;;;;0.08;100.00;100798.69;6271172;28;20385;-70
2023/01/20 02:11:04;;;;;;;31.63;13.63;;;;;;;0.13;100.00;100801.25;6271379;28;20049;-70
2023/01/20 02:14:06;;;;;;;22.73;9.35;;;;;;;0.20;100.00;100800.31;6271125;28;20492;-70
2023/01/20 02:17:15;;;;;;;27.73;12.73;;;;;;;0.14;100.00;100798.66;6271205;28;20045;-69
2023/01/20 02:20:37;;;;;;;26.42;11.85;;;;;;;0.07;100.00;100793.56;6271277;28;20045;-70
2023/01/20 02:24:00;;;;;;;23.48;10.45;;;;;;;0.08;100.00;100803.03;6271545;28;20060;-70
2023/01/20 02:27:08;;;;;;;32.63;11.68;;;;;;;0.18;100.00;100802.94;6270894;28;20052;-70
2023/01/20 02:30:36;;;;;;;29.65;10.27;;;;;;;0.12;100.00;100802.97;6271094;28;20049;-70
2023/01/20 02:33:42;;;;;;;22.15;8.23;;;;;;;0.12;100.00;100804.72;6271255;28;20053;-69
2023/01/20 02:36:50;;;;;;;24.45;9.80;;;;;;;0.13;100.00;100807.25;6271155;28;20049;-70
2023/01/20 02:40:00;;;;;;;23.58;10.00;;;;;;;0.08;100.00;100811.63;6271039;28;20052;-69
2023/01/20 02:43:08;;;;;;;22.77;11.13;;;;;;;0.07;100.00;100809.06;6275218;28;20052;-70
2023/01/20 02:46:14;;;;;;;26.63;10.30;;;;;;;0.10;100.00;100811.63;6276046;28;20064;-70
2023/01/20 02:49:23;;;;;;;23.42;9.63;;;;;;;0.07;100.00;100809.91;6275707;28;20037;-69
2023/01/20 02:52:25;;;;;;;;;;;;;;;0.02;100.00;100809.09;6276190;28;20528;-70
2023/01/20 02:55:33;;;;;;;26.65;9.75;;;;;;;0.10;100.00;100817.66;6275623;28;20395;-70
2023/01/20 02:58:41;;;;;;;34.63;10.60;;;;;;;-0.02;100.00;100818.59;6275776;28;20048;-70
2023/01/20 03:01:47;;;;;;;25.42;10.20;;;;;;;0.01;100.00;100819.47;6275603;28;20053;-69
2023/01/20 03:04:53;;;;;;;26.38;10.18;;;;;;;0.06;100.00;100821.13;6275483;28;20178;-70
2023/01/20 03:07:55;;;;;;;19.05;8.10;;;;;;;0.14;100.00;100828.81;6275495;28;20041;-70
2023/01/20 03:11:01;;;;;;;26.58;10.07;;;;;;;0.09;100.00;100839.19;6275362;28;20056;-70
2023/01/20 03:14:06;;;;;;;21.05;9.07;;;;;;;0.07;100.00;100838.34;6275164;28;20055;-70
2023/01/20 03:17:07;;;;;;;25.20;9.32;;;;;;;0.08;100.00;100834.03;6275457;28;20048;-69
2023/01/20 03:20:11;;;;;;;24.20;11.23;;;;;;;-0.01;100.00;100838.41;6274923;28;20053;-69
2023/01/20 03:23:13;;;;;;;30.75;11.20;;;;;;;0.03;100.00;100846.13;6275155;28;20048;-69
2023/01/20 03:26:16;;;;;;;27.38;11.10;;;;;;;0.09;100.00;100834.03;6274640;28;20497;-70
2023/01/20 03:29:17;;;;;;;23.55;8.68;;;;;;;0.12;100.00;100846.03;6274957;28;20045;-70
2023/01/20 03:32:24;;;;;;;33.67;11.85;;;;;;;0.04;100.00;100842.66;6274710;28;20315;-70
2023/01/20 03:35:28;;;;;;;30.52;10.55;;;;;;;0.15;100.00;100848.63;6273721;28;20059;-70
2023/01/20 03:38:29;;;;;;;28.67;9.50;;;;;;;0.18;100.00;100861.47;6274526;28;20420;-69
2023/01/20 03:41:40;;;;;;;24.13;10.55;;;;;;;0.15;100.00;100864.13;6274660;28;20517;-70
2023/01/20 03:44:59;;;;;;;20.17;9.35;;;;;;;0.21;100.00;100872.66;6274322;28;20045;-70
2023/01/20 03:48:07;;;;;;;29.70;10.82;;;;;;;0.14;100.00;100876.19;6274594;28;20056;-70
2023/01/20 03:51:13;;;;;;;22.38;10.25;;;;;;;0.16;100.00;100877.00;6274192;28;20057;-69
2023/01/20 03:54:21;;;;;;;28.58;11.63;;;;;;;0.26;100.00;100888.13;6273427;28;20056;-69
2023/01/20 03:57:28;;;;;;;25.67;9.73;;;;;;;0.29;100.00;100882.94;6274244;28;20489;-70
2023/01/20 04:00:31;;;;;;;19.10;9.15;;;;;;;0.26;100.00;100882.94;6274030;28;20049;-70
2023/01/20 04:03:37;;;;;;;29.15;10.43;;;;;;;0.25;100.00;100887.28;6274076;28;20071;-69
2023/01/20 04:06:42;;;;;;;17.77;8.63;;;;;;;0.30;100.00;100884.66;6274055;28;20060;-69
2023/01/20 04:09:48;;;;;;;28.77;11.02;;;;;;;0.35;100.00;100877.69;6273768;28;20492;-69
2023/01/20 04:12:49;;;;;;;31.27;10.60;;;;;;;0.37;100.00;100875.97;6274231;28;20056;-70
2023/01/20 04:15:51;;;;;;;21.17;9.02;;;;;;;0.35;100.00;100885.44;6273722;28;20057;-70
2023/01/20 04:18:53;;;;;;;22.92;9.30;;;;;;;0.35;100.00;100888.03;6273858;28;20053;-70
2023/01/20 04:22:02;;;;;;;27.88;10.95;;;;;;;0.40;100.00;100875.06;6273484;28;20056;-69
2023/01/20 04:25:13;;;;;;;29.65;10.95;;;;;;;0.41;100.00;100882.84;6273715;28;20055;-70
2023/01/20 04:28:14;;;;;;;22.35;8.45;;;;;;;0.49;100.00;100886.19;6272911;28;20045;-70
2023/01/20 04:31:16;;;;;;;27.27;10.65;;;;;;;0.47;100.00;100897.41;6273426;28;20052;-70
2023/01/20 04:34:18;;;;;;;22.23;9.20;;;;;;;0.44;100.00;100894.84;6273330;28;20049;-70
2023/01/20 04:37:20;;;;;;;22.63;9.23;;;;;;;0.49;100.00;100893.94;6273621;28;20045;-69
2023/01/20 04:40:22;;;;;;;23.70;10.40;;;;;;;0.55;100.00;100897.34;6273011;28;20048;-69
2023/01/20 04:43:23;;;;;;;26.13;9.68;;;;;;;0.56;100.00;100897.34;6273201;28;20055;-70
2023/01/20 04:46:24;;;;;;;24.13;9.60;;;;;;;0.62;100.00;100886.91;6273147;28;20053;-70
2023/01/20 04:49:26;;;;;;;30.80;9.52;;;;;;;0.57;100.00;100895.59;6273080;28;20052;-70
2023/01/20 04:52:28;;;;;;;20.65;8.15;;;;;;;0.50;100.00;100894.81;6272848;28;20052;-69
2023/01/20 04:55:31;;;;;;;24.15;10.65;;;;;;;0.44;100.00;100900.88;6272708;28;20059;-70
2023/01/20 04:58:33;;;;;;;21.42;9.73;;;;;;;0.53;100.00;100899.94;6272983;28;20045;-70
2023/01/20 05:01:34;;;;;;;16.77;9.07;;;;;;;0.52;100.00;100894.78;6272556;28;20057;-70
2023/01/20 05:04:36;;;;;;;21.25;7.55;;;;;;;0.45;100.00;100902.59;6272514;28;20056;-70
2023/01/20 05:07:39;;;;;;;25.50;8.90;;;;;;;0.53;100.00;100897.34;6272638;28;20041;-71
2023/01/20 05:10:40;;;;;;;22.00;7.72;;;;;;;0.57;100.00;100899.03;6272529;28;20082;-70
2023/01/20 05:13:42;;;;;;;24.58;8.60;;;;;;;0.57;100.00;100911.97;6272449;28;20057;-70
2023/01/20 05:16:43;;;;;;;19.17;7.90;;;;;;;0.58;100.00;100924.00;6272225;28;20048;-70
2023/01/20 05:19:44;;;;;;;15.90;7.63;;;;;;;0.57;100.00;100926.63;6272263;28;20136;-70
2023/01/20 05:22:47;;;;;;;24.27;7.85;;;;;;;0.60;100.00;100931.78;6272136;28;20049;-70
2023/01/20 05:25:50;;;;;;;19.33;8.02;;;;;;;0.52;100.00;100931.84;6272169;28;20056;-70
2023/01/20 05:28:51;;;;;;;18.52;8.30;;;;;;;0.57;100.00;100927.47;6271774;28;20531;-70
2023/01/20 05:31:53;;;;;;;21.15;6.60;;;;;;;0.57;100.00;100932.66;6271876;28;20080;-69
2023/01/20 05:34:54;;;;;;;22.00;8.35;;;;;;;0.57;100.00;100942.13;6271703;28;20425;-69
2023/01/20 05:37:57;;;;;;;17.60;7.15;;;;;;;0.55;100.00;100939.59;6272160;28;20048;-70
2023/01/20 05:41:01;;;;;;;15.63;7.18;;;;;;;0.56;100.00;100941.28;6271616;28;20056;-70
2023/01/20 05:44:03;;;;;;;15.10;6.88;;;;;;;0.40;100.00;100944.88;6271844;28;20052;-70
2023/01/20 05:47:04;;;;;;;17.67;6.72;;;;;;;0.50;100.00;100949.13;6271786;28;20060;-70
2023/01/20 05:50:06;;;;;;;14.02;6.57;;;;;;;0.56;100.00;100953.38;6271584;28;20408;-70
2023/01/20 05:53:09;;;;;;;17.65;7.93;;;;;;;0.60;100.00;100963.66;6271646;28;20056;-70
2023/01/20 05:56:14;;;;;;;28.15;8.20;;;;;;;0.64;100.00;100959.31;6271611;28;20053;-70
2023/01/20 05:59:15;;;;;;;18.38;7.25;;;;;;;0.63;100.00;100962.75;6271590;28;20041;-70
2023/01/20 06:02:18;;;;;;;20.38;7.05;;;;;;;0.64;100.00;100978.28;6271502;28;20057;-70
2023/01/20 06:05:19;;;;;;;14.85;7.07;;;;;;;0.66;100.00;100965.34;6271698;28;20052;-70
2023/01/20 06:08:22;;;;;;;18.25;7.28;;;;;;;0.70;100.00;100979.94;6271303;28;20416;-69
2023/01/20 06:11:23;;;;;;;17.77;8.07;;;;;;;0.63;100.00;100981.72;6271311;28;20049;-70
2023/01/20 06:14:25;;;;;;;22.50;7.63;;;;;;;0.68;100.00;100981.69;6271038;28;20044;-69
2023/01/20 06:17:26;;;;;;;18.13;7.32;;;;;;;0.67;100.00;100987.72;6270881;28;20489;-69
2023/01/20 06:20:27;;;;;;;15.43;7.68;;;;;;;0.69;100.00;100983.41;6270978;28;20045;-69
2023/01/20 06:23:30;;;;;;;15.40;6.88;;;;;;;0.70;100.00;100985.13;6271463;28;20090;-70
2023/01/20 06:26:31;;;;;;;21.48;6.97;;;;;;;0.79;100.00;100987.63;6270518;28;20660;-70
2023/01/20 06:29:33;;;;;;;14.93;6.32;;;;;;;0.77;100.00;100999.69;6271567;28;20044;-70
2023/01/20 06:32:34;;;;;;;15.98;7.10;;;;;;;0.70;100.00;101003.22;6270696;28;20500;-70
2023/01/20 06:35:35;;;;;;;16.65;6.60;;;;;;;0.76;100.00;100993.66;6271038;28;20057;-70
2023/01/20 06:38:38;;;;;;;17.95;5.15;;;;;;;0.76;100.00;101005.75;6271057;28;20489;-70
2023/01/20 06:41:39;;;;;;;13.35;6.35;;;;;;;0.78;100.00;101003.16;6270867;28;20049;-69
2023/01/20 06:44:40;;;;;;;12.93;6.25;;;;;;;0.79;100.00;101004.88;6270900;28;20420;-70
2023/01/20 06:47:42;;;;;;;13.15;6.20;;;;;;;0.82;100.00;101010.88;6270793;28;20045;-70
2023/01/20 06:50:43;;;;;;;18.10;6.90;;;;;;;0.83;100.00;101011.75;6270767;28;20052;-70
2023/01/20 06:53:47;;;;;;;17.30;6.75;;;;;;;0.84;100.00;101018.63;6270662;28;20045;-70
2023/01/20 06:56:48;;;;;;;12.35;5.97;;;;;;;0.83;100.00;101025.53;6270909;28;20533;-70
2023/01/20 06:59:50;;;;;;;17.52;5.40;;;;;;;0.89;100.00;101027.19;6270547;28;20056;-70
2023/01/20 07:02:51;;;;;;;19.33;7.28;;;;;;;0.87;100.00;101036.72;6270845;28;20512;-70
2023/01/20 07:05:57;;;;;;;13.73;6.05;;;;;;;0.93;100.00;101041.81;6270482;28;20052;-70
2023/01/20 07:09:01;;;;;;;15.43;6.00;;;;;;;0.97;100.00;101048.69;6270872;28;20413;-70
2023/01/20 07:12:02;;;;;;;16.90;7.07;;;;;;;0.97;100.00;101057.31;6270371;28;20087;-70
2023/01/20 07:15:04;;;;;;;11.82;5.47;;;;;;;0.99;100.00;101059.88;6270644;28;20060;-70
2023/01/20 07:18:05;;;;;;;14.15;5.00;;;;;;;1.00;100.00;101067.63;6270555;28;20052;-70
2023/01/20 07:21:07;;;;;;;18.10;6.22;;;;;;;1.03;100.00;101064.16;6270467;28;20501;-70
2023/01/20 07:24:09;;;;;;;13.52;6.60;;;;;;;1.04;100.00;101065.00;6270569;28;20052;-70
2023/01/20 07:27:11;;;;;;;18.17;6.20;;;;;;;1.02;100.00;101077.97;6269960;28;20090;-69
2023/01/20 07:30:13;;;;;;;15.35;6.35;;;;;;;1.04;100.00;101083.97;6274358;28;20060;-70
2023/01/20 07:33:14;;;;;;;16.00;6.00;;;;;;;1.07;100.00;101080.50;6274925;28;20064;-70
2023/01/20 07:36:16;;;;;;;15.38;6.60;;;;;;;1.06;100.00;101089.16;6274758;28;20071;-70
2023/01/20 07:39:19;;;;;;;22.95;6.32;;;;;;;1.07;100.00;101096.91;6274627;28;20052;-70
2023/01/20 07:42:21;;;;;;;16.25;7.57;;;;;;;1.06;100.00;101105.53;6274488;28;20569;-70
2023/01/20 07:45:22;;;;;;;18.58;7.70;;;;;;;1.09;100.00;101109.81;6274375;28;20053;-70
2023/01/20 07:48:24;;;;;;;19.98;8.23;;;;;;;1.10;100.00;101115.00;6274478;28;20041;-70
2023/01/20 07:51:25;;;;;;;14.05;5.85;;;;;;;1.11;100.00;101119.28;6274116;28;20045;-70
2023/01/20 07:54:28;;;;;;;14.65;6.50;;;;;;;1.12;100.00;101121.00;6274512;28;20052;-70
2023/01/20 07:57:29;;;;;;;15.13;7.20;;;;;;;1.04;100.00;101125.38;6274298;28;20488;-70
2023/01/20 08:00:31;;;;;;;16.35;6.57;;;;;;;1.01;100.00;101125.41;6274088;28;20067;-70
2023/01/20 08:03:32;;;;;;;23.67;8.20;;;;;;;1.05;100.00;101132.28;6274171;28;20053;-70
2023/01/20 08:06:33;;;;;;;23.17;7.70;;;;;;;1.09;100.00;101135.69;6274073;28;20053;-70
2023/01/20 08:09:36;;;;;;;14.48;5.88;;;;;;;1.14;100.00;101136.53;6274140;28;20041;-70
2023/01/20 08:12:37;;;;;;;21.17;7.72;;;;;;;1.14;100.00;101144.31;6274229;28;20056;-70
2023/01/20 08:15:39;;;;;;;16.23;7.07;;;;;;;1.14;100.00;101152.94;6273577;28;20053;-70
2023/01/20 08:18:40;;;;;;;18.75;7.15;;;;;;;1.15;100.00;101148.59;6273899;28;20045;-70
2023/01/20 08:21:42;;;;;;;21.98;7.15;;;;;;;1.14;100.00;101154.66;6273543;28;20052;-70
2023/01/20 08:24:44;;;;;;;23.75;8.70;;;;;;;1.15;100.00;101159.81;6273540;28;20056;-70
2023/01/20 08:27:48;;;;;;;20.05;6.97;;;;;;;1.18;100.00;101161.50;6273196;28;20064;-70
2023/01/20 08:30:49;;;;;;;19.58;6.55;;;;;;;1.22;100.00;101166.63;6272989;28;20056;-70
2023/01/20 08:33:53;;;;;;;20.25;8.38;;;;;;;1.21;100.00;101166.66;6273511;28;20048;-70
2023/01/20 08:36:56;;;;;;;22.13;8.57;;;;;;;1.22;100.00;101170.97;6273428;28;20281;-70
2023/01/20 08:39:58;;;;;;;20.85;8.55;;;;;;;1.17;100.00;101172.72;6272948;28;20167;-70
2023/01/20 08:43:00;;;;;;;19.10;8.95;;;;;;;1.17;100.00;101183.94;6273058;28;20052;-70
2023/01/20 08:46:04;;;;;;;20.67;7.72;;;;;;;1.20;100.00;101193.44;6273289;28;20408;-70
2023/01/20 08:49:06;;;;;;;19.25;8.35;;;;;;;1.17;100.00;101191.69;6272951;28;20052;-70
2023/01/20 08:52:08;;;;;;;19.40;9.10;;;;;;;1.20;100.00;101193.44;6272969;28;20049;-70
2023/01/20 08:55:11;;;;;;;22.25;8.80;;;;;;;1.20;100.00;101188.25;6272863;28;20068;-70
2023/01/20 08:58:12;;;;;;;27.02;11.57;;;;;;;1.20;100.00;101199.47;6273128;28;20489;-70
2023/01/20 09:01:16;;;;;;;27.98;9.35;;;;;;;1.26;100.00;101199.41;6272579;28;20056;-69
2023/01/20 09:04:17;;;;;;;23.15;8.98;;;;;;;1.31;100.00;101196.78;6272491;28;20519;-70
2023/01/20 09:07:19;;;;;;;22.40;9.05;;;;;;;1.37;100.00;101206.25;6272781;28;20052;-70
2023/01/20 09:10:22;;;;;;;25.55;9.55;;;;;;;1.39;100.00;101200.16;6272320;28;20051;-70
2023/01/20 09:13:23;;;;;;;30.00;11.32;;;;;;;1.40;100.00;101207.06;6272590;28;20059;-70
2023/01/20 09:16:24;;;;;;;27.23;11.27;;;;;;;1.45;100.00;101205.31;6272146;28;20053;-70
2023/01/20 09:19:26;;;;;;;30.60;11.32;;;;;;;1.50;100.00;101207.88;6272550;28;20056;-70
2023/01/20 09:22:27;;;;;;;31.20;11.63;;;;;;;1.50;100.00;101208.72;6271958;28;20424;-70
2023/01/20 09:25:30;;;;;;;30.60;12.18;;;;;;;1.49;100.00;101213.88;6272349;28;20056;-70
2023/01/20 09:28:32;;;;;;;29.58;12.25;;;;;;;1.56;100.00;101212.97;6271549;28;20041;-70
2023/01/20 09:31:33;;;;;;;32.45;10.43;;;;;;;1.58;100.00;101223.31;6320571;23;20046;-70
2023/01/20 09:34:34;;;;;;;29.52;13.00;;;;;;;1.61;100.00;101218.97;6246988;28;20053;-70
2023/01/20 09:44:42;;;;;;;31.65;13.60;;;;;;;1.59;100.00;101233.69;6247127;28;20500;-71
2023/01/20 09:47:47;;;;;;;30.70;12.40;;;;;;;1.52;100.00;101234.59;6247045;28;20049;-70
2023/01/20 09:54:16;;;;;;;31.80;10.85;;;;;;;1.65;100.00;101241.38;6246832;28;20420;-70
2023/01/20 09:57:21;;;;;;;24.83;10.30;;;;;;;1.64;100.00;101242.28;6246975;28;20052;-70
2023/01/20 10:00:24;;;;;;;37.70;13.02;;;;;;;1.74;100.00;101248.22;6246673;28;20444;-70
2023/01/20 10:03:35;;;;;;;30.98;11.55;;;;;;;1.73;100.00;101247.38;6247177;28;20053;-70
2023/01/20 10:06:41;;;;;;;36.72;13.13;;;;;;;1.70;100.00;101249.13;6246558;28;20049;-70
2023/01/20 10:09:49;;;;;;;28.27;12.70;;;;;;;1.77;100.00;101254.25;6246731;28;20049;-70
2023/01/20 10:12:56;;;;;;;39.78;13.95;;;;;;;1.77;100.00;101258.53;6246417;28;20413;-70
2023/01/20 10:16:03;;;;;;;28.08;11.73;;;;;;;1.78;100.00;101265.47;6246664;28;20052;-70
2023/01/20 10:19:12;;;;;;;37.00;11.82;;;;;;;1.76;100.00;101259.41;6246441;28;20068;-70
2023/01/20 10:22:20;;;;;;;35.47;12.43;;;;;;;1.76;100.00;101264.59;6246428;28;20501;-70
2023/01/20 10:25:26;;;;;;;29.50;12.15;;;;;;;1.77;100.00;101264.59;6246448;28;20060;-70
2023/01/20 10:28:34;;;;;;;35.22;12.10;;;;;;;1.78;100.00;101263.72;6245799;28;20563;-70
2023/01/20 10:31:43;;;;;;;27.45;12.05;;;;;;;1.81;100.00;101268.00;6246241;28;20052;-70
2023/01/20 10:34:46;;;;;;;35.70;13.33;;;;;;;1.79;100.00;101274.94;6246157;28;20537;-70
2023/01/20 10:37:48;;;;;;;28.58;11.68;;;;;;;1.87;100.00;101274.88;6246464;28;20056;-70
2023/01/20 10:40:56;;;;;;;36.35;11.75;;;;;;;1.91;100.00;101276.59;6246080;28;20054;-70
2023/01/20 10:43:59;;;;;;;30.38;11.90;;;;;;;1.94;100.00;101277.38;6246324;28;20057;-70
2023/01/20 10:47:15;;;;;;;25.33;9.43;;;;;;;1.98;100.00;101276.50;6246277;28;20520;-70
2023/01/20 10:50:39;;;;;;;23.83;9.73;;;;;;;2.03;100.00;101279.03;6246222;28;20485;-70
2023/01/20 10:53:49;;;;;;;30.42;10.65;;;;;;;2.02;100.00;101282.50;6245947;28;20053;-70
2023/01/20 10:56:54;;;;;;;33.13;9.68;;;;;;;2.03;100.00;101292.00;6246390;28;20049;-71
2023/01/20 11:00:00;;;;;;;22.90;8.93;;;;;;;2.07;100.00;101293.69;6245882;28;20041;-70
2023/01/20 11:03:04;;;;;;;24.00;9.40;;;;;;;2.09;100.00;101288.47;6248695;28;20489;-70
2023/01/20 11:06:06;;;;;;;31.23;9.82;;;;;;;2.15;100.00;101294.47;6250635;28;20053;-70
2023/01/20 11:09:19;;;;;;;25.95;8.82;;;;;;;2.22;100.00;101298.72;6250690;28;20049;-70
2023/01/20 11:12:25;;;;;;;23.55;9.25;;;;;;;2.28;100.00;101292.63;6250325;28;20049;-70
2023/01/20 11:15:31;;;;;;;21.50;8.27;;;;;;;2.18;100.00;101290.97;6250695;28;20249;-70
2023/01/20 11:18:32;;;;;;;23.67;8.93;;;;;;;2.21;100.00;101297.00;6250413;28;20060;-69
2023/01/20 11:21:36;;;;;;;26.20;8.93;;;;;;;2.28;100.00;101297.81;6250239;28;20046;-69
2023/01/20 11:24:42;;;;;;;32.65;9.00;;;;;;;2.33;100.00;101298.63;6250267;28;20394;-69
2023/01/20 11:27:45;;;;;;;26.50;8.77;;;;;;;2.44;100.00;101301.94;6249925;28;20099;-69
2023/01/20 11:30:51;;;;;;;27.70;8.52;;;;;;;2.30;100.00;101306.44;6249925;28;20050;-69
2023/01/20 11:33:58;;;;;;;15.65;6.35;;;;;;;2.45;100.00;101303.69;6250238;28;20455;-70
2023/01/20 11:37:20;;;;;;;19.33;6.38;;;;;;;2.45;100.00;101308.88;6250058;28;20056;-69
2023/01/20 11:40:24;;;;;;;19.58;6.65;;;;;;;2.50;100.00;101309.69;6249845;28;20130;-71
2023/01/20 11:43:30;;;;;;;20.27;6.78;;;;;;;2.52;100.00;101325.22;6249633;28;20088;-71
2023/01/20 11:46:35;;;;;;;17.52;6.70;;;;;;;2.51;100.00;101316.59;6249795;28;20060;-70
2023/01/20 11:49:36;;;;;;;20.17;7.55;;;;;;;2.61;100.00;101317.34;6249639;28;20045;-71
2023/01/20 11:52:39;;;;;;;18.50;6.75;;;;;;;2.69;100.00;101327.63;6249658;28;20425;-71
2023/01/20 11:55:50;;;;;;;22.30;8.13;;;;;;;2.68;100.00;101323.28;6249479;28;20431;-71
2023/01/20 11:58:55;;;;;;;31.73;9.77;;;;;;;2.75;100.00;101319.75;6249659;28;20063;-71
2023/01/20 12:02:00;;;;;;;17.05;7.32;;;;;;;2.87;100.00;101321.38;6249290;28;20072;-71
2023/01/20 12:05:09;;;;;;;22.15;7.72;;;;;;;2.83;100.00;101330.06;6249316;28;20045;-71
2023/01/20 12:08:16;;;;;;;19.70;7.38;;;;;;;2.76;100.00;101331.84;6249412;28;20405;-71
2023/01/20 12:11:24;;;;;;;20.45;7.18;;;;;;;2.78;100.00;101335.31;6248966;28;20433;-71
2023/01/20 12:14:30;;;;;;;23.98;8.07;;;;;;;2.73;100.00;101343.16;6248271;28;20054;-71
2023/01/20 12:17:41;;;;;;;14.82;5.47;;;;;;;2.72;100.00;101338.81;6249228;28;20437;-70
2023/01/20 12:20:46;;;;;;;16.88;6.50;;;;;;;2.74;100.00;101344.88;6248712;28;20057;-70
2023/01/20 12:23:50;;;;;;;17.67;6.40;;;;;;;2.71;100.00;101347.47;6248938;28;20041;-72
2023/01/20 12:26:52;;;;;;;15.05;6.13;;;;;;;2.74;100.00;101347.47;6248609;28;20057;-70
2023/01/20 12:29:58;;;;;;;21.70;8.27;;;;;;;2.66;100.00;101356.19;6248640;28;20051;-70
2023/01/20 12:33:01;;;;;;;19.77;7.60;;;;;;;2.63;100.00;101366.59;6248628;28;20416;-70
2023/01/20 12:36:23;;;;;;;17.02;6.03;;;;;;;2.65;100.00;101357.94;6248643;28;20494;-70
2023/01/20 12:39:50;;;;;;;19.50;6.45;;;;;;;2.63;100.00;101362.28;6248482;28;20135;-70
2023/01/20 12:43:10;;;;;;;16.63;6.22;;;;;;;2.68;100.00;101370.00;6248543;28;20061;-70
2023/01/20 12:46:30;;;;;;;16.92;7.00;;;;;;;2.67;100.00;101371.75;6248452;28;20520;-71
2023/01/20 12:49:51;;;;;;;22.42;7.70;;;;;;;2.75;100.00;101363.88;6248161;28;20045;-70
2023/01/20 12:53:09;;;;;;;20.00;8.27;;;;;;;2.75;100.00;101382.06;6248325;28;20060;-71
2023/01/20 12:56:18;;;;;;;19.23;7.77;;;;;;;2.72;100.00;101377.75;6248290;28;20138;-71
2023/01/20 12:59:35;;;;;;;19.80;5.97;;;;;;;2.80;100.00;101388.03;6247993;28;20656;-71
2023/01/20 13:03:06;;;;;;;16.95;7.30;;;;;;;2.73;100.00;101392.47;6248134;28;20046;-71
2023/01/20 13:06:43;;;;;;;15.15;6.43;;;;;;;2.77;100.00;101399.34;6247774;28;20049;-71
2023/01/20 13:10:00;;;;;;;22.08;7.65;;;;;;;2.77;100.00;101404.53;6196093;28;20041;-70
2023/01/20 13:13:08;;;;;;;18.50;6.65;;;;;;;2.66;100.00;101403.75;6248050;28;20053;-69
2023/01/20 13:16:16;;;;;;;15.63;6.10;;;;;;;2.72;100.00;101403.69;6248143;28;20058;-69
2023/01/20 13:19:26;;;;;;;15.40;6.20;;;;;;;2.71;100.00;101404.56;6247678;28;20410;-69
2023/01/20 13:22:30;;;;;;;21.17;7.47;;;;;;;2.74;100.00;101401.09;6247442;28;20053;-69
2023/01/20 13:25:33;;;;;;;18.15;7.05;;;;;;;2.75;100.00;101411.44;6247267;28;20405;-70
2023/01/20 13:28:34;;;;;;;19.77;6.63;;;;;;;2.66;100.00;101416.75;6247321;28;20049;-70
2023/01/20 13:31:45;;;;;;;28.15;9.50;;;;;;;2.69;100.00;101418.47;6247167;28;20045;-70
2023/01/20 13:34:46;;;;;;;21.10;8.32;;;;;;;2.72;100.00;101424.44;6247167;28;20049;-70
2023/01/20 13:37:51;;;;;;;15.32;6.32;;;;;;;2.73;100.00;101425.34;6247582;28;20056;-70
2023/01/20 13:41:01;;;;;;;19.67;7.22;;;;;;;2.76;100.00;101433.94;6247006;28;20053;-70
2023/01/20 13:44:40;;;;;;;20.92;7.78;;;;;;;2.73;100.00;101436.56;6247240;28;20076;-70
2023/01/20 13:47:51;;;;;;;19.60;7.53;;;;;;;2.76;100.00;101440.84;6247100;28;20512;-71
2023/01/20 13:50:52;;;;;;;23.70;8.82;;;;;;;2.72;100.00;101441.75;6246792;28;20408;-69
2023/01/20 13:54:36;;;;;;;22.17;8.38;;;;;;;2.70;100.00;101452.16;6246705;28;20146;-70
2023/01/20 13:57:39;;;;;;;28.70;9.50;;;;;;;2.71;100.00;101456.47;6240453;28;20517;-71
2023/01/20 14:00:41;;;;;;;28.88;10.80;;;;;;;2.68;100.00;101460.81;6246710;28;20045;-71
2023/01/20 14:03:42;;;;;;;19.70;9.48;;;;;;;2.67;100.00;101461.72;6246671;28;20049;-71
2023/01/20 14:06:45;;;;;;;25.13;8.43;;;;;;;2.54;100.00;101467.03;6247067;28;20049;-71
2023/01/20 14:09:51;;;;;;;22.45;9.75;;;;;;;2.47;100.00;101469.69;6246278;28;20053;-71
2023/01/20 14:12:54;;;;;;;28.13;10.18;;;;;;;2.50;100.00;101473.13;6247147;28;20129;-71
2023/01/20 14:15:56;;;;;;;26.88;9.82;;;;;;;2.45;100.00;101477.47;6246945;28;20045;-69